createdAt,value
2019-01-15T00:00:44.046Z,84.7
2019-01-15T00:01:43.935Z,85.5
2019-01-15T00:02:43.847Z,85.8
2019-01-15T00:03:43.757Z,85.8
2019-01-15T00:04:43.645Z,85.6
2019-01-15T00:05:43.542Z,85.9
2019-01-15T00:06:43.452Z,86.6
2019-01-15T00:07:43.375Z,86.3
2019-01-15T00:08:43.269Z,86.4
2019-01-15T00:09:43.593Z,85.2
2019-01-15T00:10:43.516Z,85.7
2019-01-15T00:11:43.428Z,86.4
2019-01-15T00:12:43.329Z,85.5
2019-01-15T00:13:43.250Z,86.1
2019-01-15T00:14:43.137Z,86.3
2019-01-15T00:15:43.047Z,86.2
2019-01-15T00:16:42.932Z,87
2019-01-15T00:17:42.844Z,85.8
2019-01-15T00:18:42.729Z,86.7
2019-01-15T00:19:43.129Z,86
2019-01-15T00:20:43.044Z,86.4
2019-01-15T00:21:42.940Z,86.9
2019-01-15T00:22:42.852Z,86.9
2019-01-15T00:23:42.754Z,86.7
2019-01-15T00:24:42.682Z,87.1
2019-01-15T00:25:42.581Z,86.8
2019-01-15T00:26:42.476Z,86.9
2019-01-15T00:27:42.606Z,86.8
2019-01-15T00:28:42.486Z,86.9
2019-01-15T00:29:42.857Z,86.6
2019-01-15T00:30:42.755Z,86.4
2019-01-15T00:31:42.644Z,85.8
2019-01-15T00:32:42.590Z,85.8
2019-01-15T00:33:42.465Z,86.4
2019-01-15T00:34:42.348Z,86.7
2019-01-15T00:35:42.250Z,87.3
2019-01-15T00:36:43.488Z,87.2
2019-01-15T00:37:43.394Z,86.3
2019-01-15T00:38:43.296Z,86
2019-01-15T00:39:43.885Z,86.5
2019-01-15T00:40:43.785Z,85.9
2019-01-15T00:41:43.658Z,86.1
2019-01-15T00:42:43.561Z,87
2019-01-15T00:43:43.974Z,86.7
2019-01-15T00:44:43.861Z,87.3
2019-01-15T00:45:43.768Z,87.2
2019-01-15T00:46:43.650Z,86
2019-01-15T00:47:43.814Z,86.9
2019-01-15T00:48:43.709Z,86.1
2019-01-15T00:49:44.052Z,86.8
2019-01-15T00:50:44.177Z,86.9
2019-01-15T00:51:44.076Z,86
2019-01-15T00:52:44.044Z,86.5
2019-01-15T00:53:43.939Z,86.8
2019-01-15T00:54:43.840Z,86.6
2019-01-15T00:55:43.734Z,87.3
2019-01-15T00:56:43.630Z,87
2019-01-15T00:57:43.562Z,86.9
2019-01-15T00:58:43.451Z,86.9
2019-01-15T00:59:43.763Z,86.9
2019-01-15T01:00:43.651Z,87.8
2019-01-15T01:01:43.549Z,88.1
2019-01-15T01:02:43.460Z,87.8
2019-01-15T01:03:43.342Z,88.1
2019-01-15T01:04:43.235Z,87.8
2019-01-15T01:05:43.130Z,88.2
2019-01-15T01:06:43.048Z,88.1
2019-01-15T01:07:42.970Z,86.7
2019-01-15T01:08:42.852Z,86.7
2019-01-15T01:09:43.147Z,87.7
2019-01-15T01:10:43.126Z,88
2019-01-15T01:11:42.999Z,87.2
2019-01-15T01:12:43.143Z,87.2
2019-01-15T01:13:43.028Z,87.7
2019-01-15T01:14:42.924Z,87.6
2019-01-15T01:15:42.824Z,87.6
2019-01-15T01:16:42.708Z,86.5
2019-01-15T01:17:42.613Z,86.7
2019-01-15T01:18:42.525Z,86.8
2019-01-15T01:19:42.830Z,87.6
2019-01-15T01:20:42.720Z,87.4
2019-01-15T01:21:42.624Z,85.9
2019-01-15T01:29:41.620Z,83.8
2019-01-15T01:30:41.515Z,83.8
2019-01-15T01:31:41.419Z,84
2019-01-15T01:32:41.338Z,84.5
2019-01-15T01:33:41.220Z,84.9
2019-01-15T01:34:41.113Z,84.6
2019-01-15T01:35:41.020Z,84.1
2019-01-15T01:36:40.931Z,84.4
2019-01-15T01:37:40.831Z,84.1
2019-01-15T01:38:40.998Z,85.2
2019-01-15T01:39:41.327Z,85.2
2019-01-15T01:40:41.228Z,85.3
2019-01-15T01:41:41.119Z,85.4
2019-01-15T01:42:41.005Z,85.9
2019-01-15T01:43:40.915Z,85.9
2019-01-15T01:44:40.794Z,86.4
2019-01-15T01:45:40.673Z,86.1
2019-01-15T01:46:40.786Z,86.5
2019-01-15T01:47:40.767Z,86.8
2019-01-15T01:48:41.148Z,85.8
2019-01-15T01:49:41.458Z,85.9
2019-01-15T01:50:41.348Z,86.5
2019-01-15T01:51:41.522Z,86.2
2019-01-15T01:52:41.426Z,86
2019-01-15T01:59:40.411Z,84.1
2019-01-15T02:00:40.315Z,85
2019-01-15T02:01:40.213Z,84.9
2019-01-15T02:02:40.157Z,85.4
2019-01-15T02:03:40.034Z,85.5
2019-01-15T02:04:39.929Z,85.9
2019-01-15T02:05:39.815Z,86
2019-01-15T02:06:39.689Z,86
2019-01-15T02:07:39.802Z,86.3
2019-01-15T02:08:39.691Z,86.2
2019-01-15T02:09:40.012Z,86.1
2019-01-15T02:10:39.889Z,86.1
2019-01-15T02:22:37.283Z,83.9
2019-01-15T02:29:36.281Z,83.2
2019-01-15T02:30:36.190Z,84.2
2019-01-15T02:31:36.089Z,84.7
2019-01-15T02:32:35.975Z,84.7
2019-01-15T02:33:36.077Z,85.2
2019-01-15T02:34:35.969Z,85.3
2019-01-15T02:35:35.875Z,85.6
2019-01-15T02:36:35.763Z,85.6
2019-01-15T02:37:35.651Z,85.7
2019-01-15T02:38:35.781Z,85.7
2019-01-15T02:39:36.106Z,85.7
2019-01-15T02:40:36.019Z,86.4
2019-01-15T02:41:35.950Z,86.3
2019-01-15T02:42:35.860Z,86.9
2019-01-15T02:43:35.971Z,87.1
2019-01-15T02:44:35.897Z,87
2019-01-15T02:45:35.838Z,87.2
2019-01-15T02:46:35.732Z,87
2019-01-15T02:47:35.635Z,87.3
2019-01-15T02:48:35.531Z,87.5
2019-01-15T02:49:35.906Z,87.4
2019-01-15T02:50:35.821Z,87.7
2019-01-15T02:51:38.619Z,86.7
2019-01-15T02:59:37.398Z,84.1
2019-01-15T03:00:37.322Z,85.4
2019-01-15T03:01:37.214Z,85.7
2019-01-15T03:02:37.319Z,86.9
2019-01-15T03:03:37.233Z,85.8
2019-01-15T03:04:37.129Z,86
2019-01-15T03:05:37.046Z,86.2
2019-01-15T03:06:36.958Z,86.1
2019-01-15T03:07:37.883Z,86.1
2019-01-15T03:08:37.776Z,86.3
2019-01-15T03:09:38.112Z,86.1
2019-01-15T03:10:38.263Z,86.5
2019-01-15T03:11:38.155Z,86.6
2019-01-15T03:12:38.054Z,86.5
2019-01-15T03:13:37.968Z,86.9
2019-01-15T03:14:37.883Z,87
2019-01-15T03:15:37.819Z,87.1
2019-01-15T03:16:38.712Z,86.7
2019-01-15T03:17:38.615Z,86.7
2019-01-15T03:18:38.587Z,87.2
2019-01-15T03:19:38.908Z,86.8
2019-01-15T03:20:38.804Z,87.4
2019-01-15T03:21:38.732Z,87.6
2019-01-15T03:22:38.612Z,87.5
2019-01-15T03:23:38.517Z,87.2
2019-01-15T03:24:38.419Z,87.2
2019-01-15T03:25:38.312Z,87.4
2019-01-15T03:26:38.202Z,87.5
2019-01-15T03:27:38.109Z,87.2
2019-01-15T03:28:38.021Z,87.5
2019-01-15T03:29:38.365Z,86.9
2019-01-15T03:30:38.338Z,87.1
2019-01-15T03:31:38.327Z,87.5
2019-01-15T03:32:38.292Z,88.1
2019-01-15T03:33:38.206Z,87.2
2019-01-15T03:34:38.104Z,87.3
2019-01-15T03:35:38.016Z,87.9
2019-01-15T03:36:38.473Z,87.6
2019-01-15T03:37:38.365Z,88.1
2019-01-15T03:38:38.262Z,87.5
2019-01-15T03:39:38.572Z,87.9
2019-01-15T03:40:38.481Z,87.5
2019-01-15T03:41:38.375Z,87.5
2019-01-15T03:42:38.248Z,87.8
2019-01-15T03:43:38.150Z,87.9
2019-01-15T03:44:38.049Z,88.3
2019-01-15T03:45:37.964Z,87.4
2019-01-15T03:46:37.922Z,87.9
2019-01-15T03:47:37.850Z,88.2
2019-01-15T03:48:37.786Z,88
2019-01-15T03:49:38.126Z,87.9
2019-01-15T03:50:38.005Z,87.9
2019-01-15T03:51:37.903Z,88.1
2019-01-15T03:52:37.812Z,87.5
2019-01-15T03:53:37.751Z,87
2019-01-15T03:54:37.671Z,87.8
2019-01-15T03:55:37.565Z,87.5
2019-01-15T03:56:37.442Z,87.8
2019-01-15T03:57:37.340Z,87.6
2019-01-15T03:58:37.247Z,87.6
2019-01-15T03:59:37.589Z,88.6
2019-01-15T04:00:37.476Z,88.3
2019-01-15T04:01:37.356Z,87.4
2019-01-15T04:09:35.830Z,84.3
2019-01-15T04:10:35.728Z,85.4
2019-01-15T04:11:35.658Z,85.4
2019-01-15T04:12:35.561Z,84.9
2019-01-15T04:13:35.452Z,85.1
2019-01-15T04:14:35.340Z,85.6
2019-01-15T04:15:35.254Z,85.4
2019-01-15T04:16:35.162Z,85.3
2019-01-15T04:17:35.074Z,85.2
2019-01-15T04:18:34.940Z,85.6
2019-01-15T04:19:35.266Z,85.9
2019-01-15T04:20:35.195Z,86.4
2019-01-15T04:21:35.090Z,87.1
2019-01-15T04:22:34.986Z,87
2019-01-15T04:23:34.872Z,86.5
2019-01-15T04:24:34.760Z,86.9
2019-01-15T04:25:34.692Z,87
2019-01-15T04:26:34.605Z,86.3
2019-01-15T04:27:34.514Z,86.5
2019-01-15T04:28:34.420Z,87
2019-01-15T04:29:34.773Z,86.4
2019-01-15T04:30:34.679Z,86.6
2019-01-15T04:31:34.602Z,87
2019-01-15T04:32:34.511Z,86.7
2019-01-15T04:33:34.408Z,86.3
2019-01-15T04:34:34.324Z,86.9
2019-01-15T04:35:34.235Z,86.9
2019-01-15T04:36:34.129Z,87.5
2019-01-15T04:37:34.022Z,86.3
2019-01-15T04:38:33.925Z,86.7
2019-01-15T04:39:34.198Z,86.3
2019-01-15T04:40:34.096Z,85.4
2019-01-15T04:41:33.982Z,85.5
2019-01-15T04:42:33.874Z,86.2
2019-01-15T04:43:33.820Z,86.7
2019-01-15T04:44:33.710Z,86.7
2019-01-15T04:45:33.610Z,85.4
2019-01-15T04:46:33.497Z,85.7
2019-01-15T04:47:33.395Z,85.8
2019-01-15T04:48:33.319Z,86.8
2019-01-15T04:49:33.641Z,86.8
2019-01-15T04:50:33.573Z,87.2
2019-01-15T04:51:33.456Z,86.7
2019-01-15T04:52:33.334Z,86.2
2019-01-15T04:53:33.227Z,86.4
2019-01-15T04:54:33.137Z,86.2
2019-01-15T04:55:33.022Z,87.4
2019-01-15T04:56:32.934Z,86.1
2019-01-15T04:57:32.834Z,86.7
2019-01-15T04:58:32.744Z,86.9
2019-01-15T04:59:33.076Z,86.7
2019-01-15T05:00:32.967Z,86.8
2019-01-15T05:01:32.883Z,85.8
2019-01-15T05:02:32.770Z,86.5
2019-01-15T05:03:32.663Z,86.3
2019-01-15T05:04:32.556Z,86.9
2019-01-15T05:05:32.459Z,87.2
2019-01-15T05:06:32.363Z,87.2
2019-01-15T05:07:32.260Z,86.7
2019-01-15T05:08:32.171Z,86.4
2019-01-15T05:09:32.522Z,86
2019-01-15T05:10:32.431Z,87
2019-01-15T05:11:32.320Z,87.2
2019-01-15T05:12:32.251Z,86.5
2019-01-15T05:13:32.172Z,87.2
2019-01-15T05:14:32.067Z,87.5
2019-01-15T05:15:31.932Z,87
2019-01-15T05:16:31.828Z,87.3
2019-01-15T05:17:31.760Z,87.8
2019-01-15T05:18:31.665Z,87.6
2019-01-15T05:19:32.084Z,87.2
2019-01-15T05:20:32.005Z,86.8
2019-01-15T05:21:31.919Z,87.1
2019-01-15T05:22:31.818Z,87.1
2019-01-15T05:23:31.726Z,87.8
2019-01-15T05:24:31.646Z,88.4
2019-01-15T05:25:31.569Z,87.6
2019-01-15T05:26:31.475Z,87.9
2019-01-15T05:27:31.475Z,89.2
2019-01-15T05:28:31.373Z,88.3
2019-01-15T05:29:31.711Z,89.2
2019-01-15T05:30:31.634Z,88.6
2019-01-15T05:39:29.908Z,85.3
2019-01-15T05:40:29.798Z,86.1
2019-01-15T05:41:29.684Z,86.4
2019-01-15T05:42:29.568Z,86.5
2019-01-15T05:43:36.558Z,86.5
2019-01-15T05:44:36.449Z,86.4
2019-01-15T05:45:36.363Z,86.7
2019-01-15T05:46:36.256Z,86.3
2019-01-15T05:47:36.157Z,86.2
2019-01-15T05:48:36.122Z,86.7
2019-01-15T05:49:36.441Z,86.9
2019-01-15T05:50:36.321Z,87.3
2019-01-15T05:51:36.197Z,87.5
2019-01-15T05:52:36.113Z,87.3
2019-01-15T05:53:36.005Z,87.2
2019-01-15T05:54:35.964Z,87.5
2019-01-15T05:55:35.901Z,87.8
2019-01-15T05:56:35.841Z,87.6
2019-01-15T05:57:35.749Z,86.8
2019-01-15T05:58:35.645Z,86.8
2019-01-15T05:59:35.958Z,87.5
2019-01-15T06:00:35.861Z,87.7
2019-01-15T06:01:35.759Z,87.7
2019-01-15T06:02:35.667Z,87.2
2019-01-15T06:03:35.800Z,88.1
2019-01-15T06:04:35.741Z,87.6
2019-01-15T06:05:35.620Z,87.9
2019-01-15T06:06:35.509Z,87.8
2019-01-15T06:07:35.421Z,87.7
2019-01-15T06:08:35.341Z,87.8
2019-01-15T06:09:35.667Z,87.4
2019-01-15T06:10:35.589Z,87.6
2019-01-15T06:11:35.497Z,86.9
2019-01-15T06:12:35.407Z,86.1
2019-01-15T06:19:42.036Z,84.3
2019-01-15T06:20:41.995Z,85.1
2019-01-15T06:21:41.893Z,84.8
2019-01-15T06:22:41.788Z,85.4
2019-01-15T06:23:41.713Z,85.3
2019-01-15T06:24:41.587Z,85.5
2019-01-15T06:25:41.487Z,85.3
2019-01-15T06:26:41.399Z,85.1
2019-01-15T06:27:41.278Z,85.9
2019-01-15T06:28:41.161Z,86.1
2019-01-15T06:29:41.465Z,85.7
2019-01-15T06:30:41.368Z,86.1
2019-01-15T06:31:41.269Z,85.6
2019-01-15T06:32:41.152Z,85.4
2019-01-15T06:33:41.047Z,85.3
2019-01-15T06:34:40.925Z,85.9
2019-01-15T06:35:40.829Z,86
2019-01-15T06:36:40.961Z,86
2019-01-15T06:37:40.873Z,86.1
2019-01-15T06:38:40.777Z,86
2019-01-15T06:39:41.331Z,85.9
2019-01-15T06:40:41.487Z,86.4
2019-01-15T06:41:41.399Z,85.7
2019-01-15T06:42:41.285Z,86.2
2019-01-15T06:43:41.193Z,86.4
2019-01-15T06:44:41.093Z,86
2019-01-15T06:45:41.035Z,85.8
2019-01-15T06:46:40.927Z,85.3
2019-01-15T06:47:40.829Z,85.3
2019-01-15T06:48:40.719Z,85.6
2019-01-15T06:49:41.271Z,85.1
2019-01-15T06:50:41.161Z,84.6
2019-01-15T06:51:41.075Z,85.2
2019-01-15T06:52:41.216Z,84.3
2019-01-15T06:53:41.103Z,84.6
2019-01-15T06:54:41.008Z,84.5
2019-01-15T06:55:40.909Z,84
2019-01-15T06:56:40.809Z,84
2019-01-15T06:57:40.697Z,84
2019-01-15T06:58:40.598Z,82.9
2019-01-15T06:59:40.935Z,83.5
2019-01-15T07:00:40.875Z,83.6
2019-01-15T07:01:40.777Z,84.4
2019-01-15T07:02:40.697Z,83.1
2019-01-15T07:03:40.571Z,83.3
2019-01-15T07:04:44.681Z,82.3
2019-01-15T07:05:44.588Z,82.9
2019-01-15T07:06:44.476Z,82.3
2019-01-15T07:07:44.364Z,82.8
2019-01-15T07:08:44.251Z,82.4
2019-01-15T07:09:44.571Z,82.1
2019-01-15T07:10:44.483Z,81.1
2019-01-15T07:11:44.363Z,81.7
2019-01-15T07:12:44.321Z,81.6
2019-01-15T07:13:44.231Z,81.7
2019-01-15T07:14:44.136Z,81.1
2019-01-15T07:15:44.093Z,80.4
2019-01-15T07:16:43.974Z,79.9
2019-01-15T07:17:43.867Z,79.3
2019-01-15T07:18:43.749Z,79.1
2019-01-15T07:19:44.081Z,78.6
2019-01-15T07:20:43.990Z,79.1
2019-01-15T07:21:43.900Z,78.8
2019-01-15T07:22:43.779Z,77.8
2019-01-15T07:23:43.905Z,77.4
2019-01-15T07:24:43.797Z,78.9
2019-01-15T07:25:43.684Z,77.5
2019-01-15T07:26:43.594Z,77.6
2019-01-15T07:27:43.713Z,76
2019-01-15T07:28:43.611Z,77.3
2019-01-15T07:29:43.925Z,76.7
2019-01-15T07:30:43.822Z,77
2019-01-15T07:31:43.741Z,76.4
2019-01-15T07:39:42.513Z,73.1
2019-01-15T07:40:42.411Z,74.9
2019-01-15T07:41:42.298Z,75.6
2019-01-15T07:42:42.233Z,74.9
2019-01-15T07:43:42.353Z,74.4
2019-01-15T07:44:42.247Z,74.2
2019-01-15T07:45:42.141Z,73
2019-01-15T07:46:42.013Z,73.2
2019-01-15T07:47:41.918Z,74.4
2019-01-15T07:48:42.533Z,74.1
2019-01-15T07:49:42.849Z,75.1
2019-01-15T07:50:42.721Z,74.7
2019-01-15T07:51:42.611Z,73.2
2019-01-15T07:52:42.729Z,72.5
2019-01-15T07:53:42.643Z,73.3
2019-01-15T07:54:42.553Z,73.6
2019-01-15T07:55:42.676Z,74.6
2019-01-15T07:56:42.567Z,73.8
2019-01-15T07:57:42.455Z,72.8
2019-01-15T07:58:42.381Z,72.7
2019-01-15T07:59:42.938Z,73.4
2019-01-15T08:00:42.830Z,72.8
2019-01-15T08:01:42.727Z,73.1
2019-01-15T08:02:42.629Z,74.7
2019-01-15T08:03:42.554Z,73.6
2019-01-15T08:04:42.460Z,73.9
2019-01-15T08:05:42.363Z,76
2019-01-15T08:06:42.257Z,74.7
2019-01-15T08:07:42.388Z,74.5
2019-01-15T08:08:42.310Z,74.1
2019-01-15T08:09:42.651Z,74.4
2019-01-15T08:10:42.589Z,74.2
2019-01-15T08:11:42.720Z,73.4
2019-01-15T08:12:42.611Z,74.3
2019-01-15T08:13:42.520Z,74.2
2019-01-15T08:14:42.404Z,74.5
2019-01-15T08:15:42.297Z,74.3
2019-01-15T08:16:42.204Z,72.7
2019-01-15T08:17:42.108Z,74
2019-01-15T08:18:42.032Z,72.9
2019-01-15T08:19:42.372Z,73.2
2019-01-15T08:20:42.504Z,73.9
2019-01-15T08:29:40.753Z,70.5
2019-01-15T08:30:40.663Z,71.6
2019-01-15T08:31:40.566Z,71.1
2019-01-15T08:32:40.494Z,71.1
2019-01-15T08:33:40.378Z,71.5
2019-01-15T08:34:40.535Z,71.3
2019-01-15T08:35:40.439Z,71.9
2019-01-15T08:36:40.330Z,72.4
2019-01-15T08:37:40.222Z,71.6
2019-01-15T08:38:40.120Z,72.5
2019-01-15T08:39:40.492Z,71.6
2019-01-15T08:40:40.418Z,71.6
2019-01-15T08:41:40.534Z,72.4
2019-01-15T08:42:40.454Z,72.9
2019-01-15T08:43:40.342Z,74
2019-01-15T08:44:40.242Z,70.7
2019-01-15T08:45:40.148Z,70.7
2019-01-15T08:46:40.046Z,69
2019-01-15T08:47:39.938Z,69.7
2019-01-15T08:48:39.838Z,72
2019-01-15T08:49:40.180Z,72.3
2019-01-15T08:50:40.095Z,69.1
2019-01-15T08:51:39.974Z,70.6
2019-01-15T08:52:39.878Z,71.6
2019-01-15T08:53:40.018Z,72.7
2019-01-15T08:54:39.928Z,72.6
2019-01-15T08:55:39.842Z,72.6
2019-01-15T08:56:39.748Z,72.8
2019-01-15T08:57:39.635Z,72.3
2019-01-15T08:58:39.551Z,70.3
2019-01-15T08:59:39.909Z,68.7
2019-01-15T09:00:39.806Z,71.2
2019-01-15T09:01:39.718Z,72.7
2019-01-15T09:02:39.611Z,72.2
2019-01-15T09:03:39.518Z,72.8
2019-01-15T09:04:39.423Z,71.5
2019-01-15T09:05:39.299Z,72.8
2019-01-15T09:06:39.215Z,73.8
2019-01-15T09:07:39.119Z,72.5
2019-01-15T09:08:39.016Z,72.2
2019-01-15T09:09:39.477Z,72.8
2019-01-15T09:10:39.434Z,72.4
2019-01-15T09:11:39.354Z,71.5
2019-01-15T09:19:38.476Z,67.8
2019-01-15T09:20:38.376Z,68.1
2019-01-15T09:21:38.292Z,69.8
2019-01-15T09:22:38.178Z,69.6
2019-01-15T09:23:38.091Z,69.5
2019-01-15T09:24:38.087Z,68.5
2019-01-15T09:25:39.656Z,68.9
2019-01-15T09:26:39.579Z,69.3
2019-01-15T09:27:39.526Z,70.1
2019-01-15T09:28:39.508Z,69.4
2019-01-15T09:29:39.996Z,69.1
2019-01-15T09:30:39.892Z,69.8
2019-01-15T09:31:39.818Z,68.7
2019-01-15T09:32:39.748Z,69.6
2019-01-15T09:33:39.648Z,69.3
2019-01-15T09:34:39.552Z,68.6
2019-01-15T09:35:39.464Z,69.5
2019-01-15T09:36:39.390Z,70.3
2019-01-15T09:37:39.278Z,68.3
2019-01-15T09:38:39.203Z,68.6
2019-01-15T09:39:39.524Z,68
2019-01-15T09:40:39.436Z,68.9
2019-01-15T09:41:39.344Z,68.6
2019-01-15T09:45:38.492Z,67.2
2019-01-15T09:49:38.034Z,66.9
2019-01-15T09:50:37.945Z,66.5
2019-01-15T09:51:37.850Z,66.4
2019-01-15T09:52:37.746Z,66.3
2019-01-15T09:53:37.662Z,67.9
2019-01-15T09:54:37.587Z,67.4
2019-01-15T09:55:37.482Z,67.3
2019-01-15T09:56:37.429Z,66.9
2019-01-15T09:57:37.319Z,67.6
2019-01-15T09:58:37.210Z,67.9
2019-01-15T09:59:37.571Z,68.1
2019-01-15T10:00:37.474Z,68.6
2019-01-15T10:01:37.370Z,68.1
2019-01-15T10:02:37.272Z,69.2
2019-01-15T10:03:37.168Z,68.2
2019-01-15T10:04:37.059Z,68.2
2019-01-15T10:05:36.952Z,68.7
2019-01-15T10:06:36.892Z,68.7
2019-01-15T10:07:36.786Z,68.5
2019-01-15T10:08:36.680Z,69.3
2019-01-15T10:09:38.110Z,69.8
2019-01-15T10:10:38.011Z,69.3
2019-01-15T10:11:39.695Z,69.4
2019-01-15T10:12:39.621Z,70
2019-01-15T10:13:39.571Z,69
2019-01-15T10:14:42.229Z,67.5
2019-01-15T10:15:42.129Z,67.4
2019-01-15T10:16:42.064Z,68.3
2019-01-15T10:17:41.970Z,68.6
2019-01-15T10:18:41.867Z,70
2019-01-15T10:19:42.192Z,70.2
2019-01-15T10:20:42.103Z,69.7
2019-01-15T10:21:42.039Z,69.1
2019-01-15T10:22:41.996Z,70
2019-01-15T10:23:41.910Z,68.9
2019-01-15T10:24:41.817Z,70.1
2019-01-15T10:25:43.241Z,70
2019-01-15T10:26:43.203Z,70
2019-01-15T10:27:43.111Z,68
2019-01-15T10:28:43.020Z,69
2019-01-15T10:29:43.384Z,67.5
2019-01-15T10:30:43.295Z,68
2019-01-15T10:31:43.215Z,68.9
2019-01-15T10:32:43.111Z,68.3
2019-01-15T10:33:43.335Z,67.6
2019-01-15T10:34:43.239Z,68.5
2019-01-15T10:35:43.135Z,68.9
2019-01-15T10:36:43.057Z,68.5
2019-01-15T10:37:43.179Z,69.1
2019-01-15T10:38:43.091Z,68.7
2019-01-15T10:39:43.413Z,68.3
2019-01-15T10:40:43.315Z,68.7
2019-01-15T10:41:43.240Z,69.2
2019-01-15T10:42:43.127Z,69.6
2019-01-15T10:43:43.034Z,69.4
2019-01-15T10:44:49.449Z,68.5
2019-01-15T10:45:49.341Z,69.1
2019-01-15T10:46:49.254Z,68.6
2019-01-15T10:47:49.157Z,68.7
2019-01-15T10:48:49.165Z,68.6
2019-01-15T10:49:49.547Z,69.6
2019-01-15T10:50:49.455Z,68.2
2019-01-15T10:51:49.340Z,67.8
2019-01-15T10:52:49.267Z,66.9
2019-01-15T10:53:49.170Z,66.4
2019-01-15T10:54:49.093Z,66
2019-01-15T10:55:48.994Z,66.9
2019-01-15T10:56:48.887Z,68.3
2019-01-15T10:57:48.774Z,68.4
2019-01-15T10:58:48.655Z,67.7
2019-01-15T10:59:48.991Z,68.3
2019-01-15T11:00:48.879Z,68.3
2019-01-15T11:01:48.763Z,67.1
2019-01-15T11:02:48.691Z,67.3
2019-01-15T11:03:48.603Z,67.8
2019-01-15T11:04:48.514Z,67.5
2019-01-15T11:05:48.405Z,67.2
2019-01-15T11:06:48.321Z,68.6
2019-01-15T11:07:48.259Z,67.9
2019-01-15T11:08:48.153Z,68.3
2019-01-15T11:09:48.475Z,67.6
2019-01-15T11:10:48.359Z,69.2
2019-01-15T11:11:48.256Z,68.1
2019-01-15T11:12:48.169Z,66.5
2019-01-15T11:13:48.073Z,66.9
2019-01-15T11:14:47.975Z,66.7
2019-01-15T11:15:47.876Z,66.6
2019-01-15T11:16:47.786Z,65.4
2019-01-15T11:17:47.719Z,66
2019-01-15T11:18:47.617Z,65.8
2019-01-15T11:19:47.963Z,65.8
2019-01-15T11:20:47.852Z,67.5
2019-01-15T11:21:47.775Z,66.5
2019-01-15T11:22:47.688Z,66.9
2019-01-15T11:23:47.579Z,66.9
2019-01-15T11:24:47.469Z,67.3
2019-01-15T11:25:47.397Z,66.8
2019-01-15T11:26:47.273Z,66.7
2019-01-15T11:27:47.208Z,66.2
2019-01-15T11:28:47.099Z,66.6
2019-01-15T11:29:47.429Z,66.8
2019-01-15T11:30:47.329Z,65.8
2019-01-15T11:31:47.225Z,65.6
2019-01-15T11:32:47.137Z,66.1
2019-01-15T11:33:47.054Z,64.4
2019-01-15T11:34:46.967Z,64.2
2019-01-15T11:35:46.869Z,65.6
2019-01-15T11:36:46.759Z,66.7
2019-01-15T11:37:46.695Z,65.6
2019-01-15T11:38:46.602Z,66.3
2019-01-15T11:39:46.955Z,64.8
2019-01-15T11:40:46.843Z,64.6
2019-01-15T11:41:46.739Z,65.7
2019-01-15T11:42:46.668Z,65.6
2019-01-15T11:43:46.564Z,65.4
2019-01-15T11:44:46.495Z,66.6
2019-01-15T11:45:46.399Z,66
2019-01-15T11:46:46.295Z,66.7
2019-01-15T11:47:46.225Z,65.7
2019-01-15T11:48:46.135Z,65.5
2019-01-15T11:49:46.470Z,65.8
2019-01-15T11:50:46.365Z,66.3
2019-01-15T11:51:46.310Z,65.7
2019-01-15T11:52:46.213Z,65.9
2019-01-15T11:53:46.117Z,64.2
2019-01-15T11:54:46.011Z,65.1
2019-01-15T11:55:45.919Z,64.9
2019-01-15T11:56:45.814Z,65.4
2019-01-15T11:57:45.721Z,65.2
2019-01-15T11:58:45.619Z,64.9
2019-01-15T11:59:45.958Z,65.5
2019-01-15T12:00:45.868Z,64.1
2019-01-15T12:01:45.790Z,64.7
2019-01-15T12:02:45.735Z,65.8
2019-01-15T12:03:45.623Z,65.6
2019-01-15T12:04:45.541Z,65.8
2019-01-15T12:05:45.435Z,65.8
2019-01-15T12:06:45.329Z,65.8
2019-01-15T12:07:45.209Z,65.6
2019-01-15T12:08:45.140Z,67
2019-01-15T12:09:45.487Z,65.9
2019-01-15T12:10:45.367Z,66.5
2019-01-15T12:11:45.255Z,65.4
2019-01-15T12:12:45.132Z,65.1
2019-01-15T12:13:45.046Z,66
2019-01-15T12:14:44.931Z,65.9
2019-01-15T12:15:44.857Z,64.3
2019-01-15T12:16:44.733Z,63.8
2019-01-15T12:17:44.630Z,63.9
2019-01-15T12:18:44.523Z,64
2019-01-15T12:19:44.875Z,65.1
2019-01-15T12:20:44.751Z,64.8
2019-01-15T12:21:44.636Z,63.9
2019-01-15T12:22:44.542Z,65.1
2019-01-15T12:23:44.429Z,64
2019-01-15T12:24:44.347Z,65.2
2019-01-15T12:25:44.248Z,64.4
2019-01-15T12:26:44.145Z,65.6
2019-01-15T12:27:44.052Z,64.4
2019-01-15T12:28:43.935Z,66
2019-01-15T12:29:44.291Z,65.6
2019-01-15T12:30:44.209Z,64.5
2019-01-15T12:31:44.111Z,65.2
2019-01-15T12:32:44.011Z,64
2019-01-15T12:33:43.913Z,65
2019-01-15T12:34:43.848Z,65.1
2019-01-15T12:35:43.763Z,62.9
2019-01-15T12:36:43.690Z,62.4
2019-01-15T12:37:43.588Z,62.4
2019-01-15T12:38:43.485Z,62.5
2019-01-15T12:39:43.845Z,62.5
2019-01-15T12:40:43.760Z,63.7
2019-01-15T12:41:43.659Z,63.5
2019-01-15T12:42:43.566Z,63
2019-01-15T12:43:43.466Z,62
2019-01-15T12:44:43.371Z,62
2019-01-15T12:45:43.256Z,62.5
2019-01-15T12:46:43.183Z,62.1
2019-01-15T12:47:43.079Z,63.6
2019-01-15T12:48:42.966Z,63.6
2019-01-15T12:49:43.328Z,62
2019-01-15T12:50:43.236Z,62.9
2019-01-15T12:51:43.152Z,63.5
2019-01-15T12:52:43.069Z,63.7
2019-01-15T12:53:42.973Z,63.4
2019-01-15T12:54:42.893Z,62
2019-01-15T12:55:42.860Z,62
2019-01-15T12:56:42.743Z,62.5
2019-01-15T12:57:42.687Z,61.9
2019-01-15T12:58:42.579Z,62.7
2019-01-15T12:59:42.902Z,62.3
2019-01-15T13:00:42.808Z,62.7
2019-01-15T13:01:42.716Z,62
2019-01-15T13:02:42.614Z,62.5
2019-01-15T13:03:42.545Z,62.6
2019-01-15T13:04:42.452Z,63.4
2019-01-15T13:05:42.332Z,62.8
2019-01-15T13:06:42.234Z,63.1
2019-01-15T13:07:42.122Z,65.4
2019-01-15T13:08:42.018Z,62.8
2019-01-15T13:09:42.479Z,62.6
2019-01-15T13:10:42.387Z,62.9
2019-01-15T13:11:42.277Z,62.8
2019-01-15T13:12:42.164Z,63.2
2019-01-15T13:13:42.054Z,63.2
2019-01-15T13:14:41.973Z,63.8
2019-01-15T13:15:41.870Z,63.9
2019-01-15T13:16:41.796Z,63.8
2019-01-15T13:17:41.704Z,64.5
2019-01-15T13:18:41.602Z,64.3
2019-01-15T13:19:41.936Z,64.4
2019-01-15T13:20:41.846Z,64.2
2019-01-15T13:21:41.745Z,63
2019-01-15T13:22:41.635Z,63.5
2019-01-15T13:23:41.536Z,64.1
2019-01-15T13:24:41.433Z,63.8
2019-01-15T13:25:41.341Z,64.1
2019-01-15T13:26:41.274Z,63.7
2019-01-15T13:27:41.183Z,64.2
2019-01-15T13:28:41.077Z,64.7
2019-01-15T13:29:41.440Z,64.8
2019-01-15T13:30:41.336Z,64.6
2019-01-15T13:31:41.262Z,64.6
2019-01-15T13:32:41.152Z,65.3
2019-01-15T13:33:41.064Z,66.1
2019-01-15T13:34:40.968Z,66.4
2019-01-15T13:35:40.865Z,66.2
2019-01-15T13:36:40.767Z,66.2
2019-01-15T13:37:40.697Z,66.2
2019-01-15T13:38:40.592Z,66.2
2019-01-15T13:39:40.935Z,65.6
2019-01-15T13:40:40.834Z,65.8
2019-01-15T13:41:40.730Z,66.1
2019-01-15T13:42:40.616Z,66.6
2019-01-15T13:43:40.604Z,67
2019-01-15T13:44:40.500Z,65.4
2019-01-15T13:45:42.655Z,66
2019-01-15T13:46:42.548Z,66.8
2019-01-15T13:47:42.472Z,64.9
2019-01-15T13:48:42.374Z,65.6
2019-01-15T13:49:42.677Z,66
2019-01-15T13:50:42.572Z,65.7
2019-01-15T13:51:42.462Z,66.8
2019-01-15T13:52:42.350Z,66.9
2019-01-15T13:53:42.282Z,67.1
2019-01-15T13:54:42.184Z,67.2
2019-01-15T13:55:42.079Z,67.7
2019-01-15T13:56:41.972Z,67.7
2019-01-15T13:57:41.902Z,67.5
2019-01-15T13:58:41.830Z,67.7
2019-01-15T13:59:42.153Z,67.5
2019-01-15T14:00:42.094Z,67.9
2019-01-15T14:01:41.986Z,68.3
2019-01-15T14:02:41.884Z,66.9
2019-01-15T14:03:41.782Z,67.8
2019-01-15T14:04:41.706Z,67.9
2019-01-15T14:05:41.614Z,67.5
2019-01-15T14:06:41.506Z,67.2
2019-01-15T14:07:41.404Z,67.1
2019-01-15T14:08:41.313Z,67.1
2019-01-15T14:09:41.669Z,67.5
2019-01-15T14:10:41.620Z,67.2
2019-01-15T14:11:41.528Z,67.2
2019-01-15T14:12:41.440Z,67.2
2019-01-15T14:13:41.333Z,67.4
2019-01-15T14:14:41.208Z,67
2019-01-15T14:15:41.124Z,67
2019-01-15T14:16:41.069Z,67.2
2019-01-15T14:17:40.956Z,66.6
2019-01-15T14:18:40.853Z,66.6
2019-01-15T14:19:41.206Z,66.4
2019-01-15T14:20:41.112Z,66.7
2019-01-15T14:21:40.998Z,66.9
2019-01-15T14:22:40.890Z,67
2019-01-15T14:23:40.782Z,66.8
2019-01-15T14:24:40.666Z,67.6
2019-01-15T14:25:40.574Z,67.4
2019-01-15T14:26:40.482Z,67.8
2019-01-15T14:27:40.380Z,68.1
2019-01-15T14:28:40.262Z,67.4
2019-01-15T14:29:40.586Z,67.7
2019-01-15T14:30:40.462Z,67.6
2019-01-15T14:31:40.360Z,68.3
2019-01-15T14:32:40.266Z,68.3
2019-01-15T14:33:40.152Z,68
2019-01-15T14:34:40.046Z,68.2
2019-01-15T14:35:39.934Z,68.3
2019-01-15T14:36:39.843Z,69
2019-01-15T14:37:39.747Z,69.5
2019-01-15T14:38:39.658Z,69.1
2019-01-15T14:39:39.999Z,69.7
2019-01-15T14:40:39.939Z,69.2
2019-01-15T14:41:39.838Z,69.4
2019-01-15T14:42:39.754Z,69.4
2019-01-15T14:43:39.661Z,69.4
2019-01-15T14:44:39.567Z,69.2
2019-01-15T14:45:39.482Z,69.8
2019-01-15T14:46:39.393Z,70
2019-01-15T14:47:39.280Z,70.1
2019-01-15T14:48:39.199Z,70.2
2019-01-15T14:49:39.544Z,70